createdAt,value
2023-02-03T00:03:51.806Z,80.97
2023-02-03T00:08:58.288Z,80.39
2023-02-03T00:14:00.429Z,81.18
2023-02-03T00:19:02.767Z,80.37
2023-02-03T00:24:05.212Z,79.98
2023-02-03T00:29:07.282Z,80.63
2023-02-03T00:34:09.371Z,80.03
2023-02-03T00:39:11.452Z,80.33
2023-02-03T00:44:14.634Z,79.37
2023-02-03T00:49:16.768Z,78.33
2023-02-03T00:54:18.892Z,78.59
2023-02-03T00:59:21.028Z,77.32
2023-02-03T01:04:23.166Z,76.92
2023-02-03T01:09:26.230Z,76.08
2023-02-03T01:14:28.342Z,75.91
2023-02-03T01:19:30.427Z,77.50
2023-02-03T01:24:32.620Z,77.50
2023-02-03T01:29:34.904Z,77.41
2023-02-03T01:34:36.975Z,76.95
2023-02-03T01:39:39.112Z,76.32
2023-02-03T01:44:53.349Z,75.36
2023-02-03T01:50:04.376Z,73.71
2023-02-03T01:55:10.120Z,73.75
2023-02-03T02:00:13.877Z,74.72
2023-02-03T02:05:24.158Z,75.09
2023-02-03T02:10:27.275Z,75.12
2023-02-03T02:15:49.739Z,73.69
2023-02-03T02:20:54.843Z,73.74
2023-02-03T02:26:31.344Z,73.90
2023-02-03T02:31:52.083Z,72.70
2023-02-03T02:37:15.522Z,73.45
2023-02-03T02:42:23.743Z,74.99
2023-02-03T02:47:25.834Z,75.46
2023-02-03T02:52:31.777Z,77.00
2023-02-03T02:57:37.070Z,75.91
2023-02-03T03:02:39.481Z,74.66
2023-02-03T03:07:48.793Z,75.95
2023-02-03T03:12:57.191Z,76.52
2023-02-03T03:18:20.051Z,75.44
2023-02-03T03:23:32.080Z,75.53
2023-02-03T03:28:48.498Z,75.44
2023-02-03T03:33:50.683Z,76.21
2023-02-03T03:39:25.022Z,75.01
2023-02-03T03:44:34.002Z,73.96
2023-02-03T03:49:37.452Z,71.20
2023-02-03T03:54:41.530Z,71.38
2023-02-03T03:59:48.025Z,71.74
2023-02-03T04:04:51.216Z,71.79
2023-02-03T04:09:53.312Z,72.54
2023-02-03T04:14:55.421Z,73.07
2023-02-03T04:19:57.561Z,74.09
2023-02-03T04:24:59.676Z,74.05
2023-02-03T04:30:02.188Z,74.33
2023-02-03T04:35:06.049Z,73.46
2023-02-03T04:40:08.976Z,72.83
2023-02-03T04:45:12.367Z,68.17
2023-02-03T04:50:14.470Z,66.14
2023-02-03T04:55:16.560Z,63.97
2023-02-03T05:00:19.063Z,62.12
2023-02-03T05:05:21.327Z,60.25
2023-02-03T05:10:23.424Z,61.74
2023-02-03T05:15:25.522Z,59.72
2023-02-03T05:20:28.529Z,60.29
2023-02-03T05:25:31.310Z,59.85
2023-02-03T05:30:33.530Z,59.82
2023-02-03T05:35:35.940Z,60.74
2023-02-03T05:40:56.755Z,61.34
2023-02-03T05:46:06.617Z,61.72
2023-02-03T05:51:08.737Z,62.22
2023-02-03T05:56:10.807Z,61.42
2023-02-03T06:01:12.967Z,61.00
2023-02-03T06:06:16.414Z,61.35
2023-02-03T06:11:18.607Z,61.87
2023-02-03T06:16:21.313Z,62.18
2023-02-03T06:21:23.625Z,62.47
2023-02-03T06:26:25.784Z,63.28
2023-02-03T06:31:28.335Z,63.41
2023-02-03T06:36:30.511Z,63.85
2023-02-03T06:41:32.852Z,64.34
2023-02-03T06:46:35.280Z,63.23
2023-02-03T06:51:37.407Z,62.95
2023-02-03T06:56:39.527Z,62.01
2023-02-03T07:01:42.157Z,60.11
2023-02-03T07:06:44.343Z,60.25
2023-02-03T07:11:46.530Z,58.88
2023-02-03T07:16:48.625Z,57.42
2023-02-03T07:21:50.784Z,56.83
2023-02-03T07:26:53.286Z,56.64
2023-02-03T07:31:55.498Z,57.00
2023-02-03T07:36:57.784Z,55.43
2023-02-03T07:41:59.992Z,55.82
2023-02-03T07:47:02.154Z,55.12
2023-02-03T07:52:04.533Z,55.13
2023-02-03T07:57:06.628Z,55.24
2023-02-03T08:02:11.356Z,54.72
2023-02-03T08:07:13.488Z,54.02
2023-02-03T08:12:15.555Z,53.99
2023-02-03T08:17:17.622Z,54.08
2023-02-03T08:22:19.804Z,54.02
2023-02-03T08:27:23.262Z,53.97
2023-02-03T08:32:25.894Z,54.64
2023-02-03T08:37:30.229Z,55.32
2023-02-03T08:42:32.481Z,55.14
2023-02-03T08:47:36.891Z,55.03
2023-02-03T08:52:40.149Z,53.82
2023-02-03T08:57:42.321Z,53.29
2023-02-03T09:02:44.480Z,56.84
2023-02-03T09:07:46.731Z,56.28
2023-02-03T09:12:49.209Z,57.90
2023-02-03T09:17:51.405Z,58.81
2023-02-03T09:22:55.077Z,62.45
2023-02-03T09:27:57.329Z,69.56
2023-02-03T09:32:59.483Z,75.44
2023-02-03T09:38:02.079Z,78.90
2023-02-03T09:43:42.541Z,81.94
2023-02-03T09:48:50.569Z,83.20
2023-02-03T09:54:00.813Z,85.19
2023-02-03T09:59:03.970Z,85.96
2023-02-03T10:04:28.511Z,88.34
2023-02-03T10:09:34.328Z,88.15
2023-02-03T10:14:50.859Z,87.98
2023-02-03T10:20:17.244Z,87.57
2023-02-03T10:25:25.893Z,86.90
2023-02-03T10:30:34.505Z,85.69
2023-02-03T10:36:00.484Z,86.54
2023-02-03T10:41:03.739Z,86.53
2023-02-03T10:46:06.027Z,85.75
2023-02-03T10:51:24.658Z,86.71
2023-02-03T10:56:31.385Z,87.00
2023-02-03T11:01:45.237Z,86.91
2023-02-03T11:07:08.271Z,87.23
2023-02-03T11:12:19.464Z,87.68
2023-02-03T11:17:27.412Z,88.69
2023-02-03T11:22:38.528Z,91.49
2023-02-03T11:27:40.953Z,92.78
2023-02-03T11:32:46.669Z,95.05
2023-02-03T11:37:51.424Z,95.62
2023-02-03T11:42:53.495Z,96.12
2023-02-03T11:48:07.569Z,96.24
2023-02-03T11:53:47.787Z,96.32
2023-02-03T11:59:01.005Z,96.55
2023-02-03T12:04:44.370Z,96.93
2023-02-03T12:10:04.770Z,97.14
2023-02-03T12:15:20.410Z,97.34
2023-02-03T12:21:04.227Z,97.40
2023-02-03T12:26:34.679Z,97.61
2023-02-03T12:32:04.645Z,97.69
2023-02-03T12:37:15.080Z,97.82
2023-02-03T12:42:24.544Z,98.04
2023-02-03T12:47:34.491Z,98.17
2023-02-03T12:53:00.761Z,98.28
2023-02-03T12:58:28.541Z,98.35
2023-02-03T13:03:39.149Z,98.40
2023-02-03T13:09:08.612Z,98.40
2023-02-03T13:14:46.773Z,98.48
2023-02-03T13:19:56.455Z,98.55
2023-02-03T13:25:16.963Z,98.63
2023-02-03T13:30:44.272Z,98.69
2023-02-03T13:35:55.620Z,98.76
2023-02-03T13:41:16.212Z,98.89
2023-02-03T13:46:26.487Z,99.00
2023-02-03T13:51:39.376Z,99.09
2023-02-03T13:56:42.226Z,99.13
2023-02-03T14:01:44.618Z,99.26
2023-02-03T14:06:49.429Z,99.37
2023-02-03T14:12:12.437Z,99.48
2023-02-03T14:17:36.357Z,99.56
2023-02-03T14:22:40.146Z,99.65
2023-02-03T14:27:42.404Z,99.73
2023-02-03T14:33:00.728Z,99.81
2023-02-03T14:38:09.201Z,99.89
2023-02-03T14:43:28.391Z,99.96
2023-02-03T14:48:36.692Z,100.00
2023-02-03T14:53:48.041Z,100.00
2023-02-03T14:58:55.073Z,100.00
2023-02-03T15:04:26.351Z,100.00
2023-02-03T15:09:46.040Z,100.00
2023-02-03T15:14:48.944Z,100.00
2023-02-03T15:19:52.044Z,100.00
2023-02-03T15:25:02.793Z,100.00
2023-02-03T15:30:28.128Z,100.00
2023-02-03T15:35:33.215Z,100.00
2023-02-03T15:40:44.007Z,100.00
2023-02-03T15:45:59.179Z,100.00
2023-02-03T15:51:08.456Z,100.00
2023-02-03T15:56:19.476Z,100.00
2023-02-03T16:01:26.058Z,100.00
2023-02-03T16:06:38.346Z,100.00
2023-02-03T16:11:40.550Z,100.00
2023-02-03T16:17:04.500Z,100.00
2023-02-03T16:22:28.735Z,100.00
2023-02-03T16:27:32.775Z,100.00
2023-02-03T16:32:53.484Z,100.00
2023-02-03T16:38:14.639Z,100.00
2023-02-03T16:43:35.983Z,100.00
2023-02-03T16:48:56.959Z,100.00
2023-02-03T16:53:59.161Z,100.00
2023-02-03T16:59:01.434Z,100.00
2023-02-03T17:04:03.703Z,100.00
2023-02-03T17:09:06.251Z,100.00
2023-02-03T17:14:08.843Z,100.00
2023-02-03T17:19:12.492Z,100.00
2023-02-03T17:24:15.284Z,100.00
2023-02-03T17:29:17.461Z,100.00
2023-02-03T17:34:19.559Z,100.00
2023-02-03T17:55:21.235Z,100.00
2023-02-03T18:00:23.671Z,100.00
2023-02-03T18:05:42.649Z,100.00
2023-02-03T18:10:44.866Z,100.00
2023-02-03T18:15:46.904Z,100.00
2023-02-03T18:20:49.140Z,100.00
2023-02-03T18:25:55.223Z,100.00
2023-02-03T18:31:12.445Z,100.00
2023-02-03T18:36:18.316Z,100.00
2023-02-03T18:41:25.821Z,100.00
2023-02-03T18:46:30.138Z,100.00
2023-02-03T18:51:32.389Z,100.00
2023-02-03T18:56:37.227Z,100.00
2023-02-03T19:01:39.460Z,100.00
2023-02-03T19:06:45.506Z,100.00
2023-02-03T19:11:48.065Z,100.00
2023-02-03T19:16:51.793Z,100.00
2023-02-03T19:21:54.050Z,100.00
2023-02-03T19:26:56.362Z,100.00
2023-02-03T19:31:58.653Z,100.00
2023-02-03T19:37:00.807Z,100.00
2023-02-03T19:42:03.666Z,100.00
2023-02-03T19:47:05.913Z,100.00
2023-02-03T19:52:10.136Z,100.00
2023-02-03T19:57:12.258Z,100.00
2023-02-03T20:02:16.018Z,100.00
2023-02-03T20:07:19.120Z,100.00
2023-02-03T20:12:21.310Z,100.00
2023-02-03T20:17:24.251Z,100.00
2023-02-03T20:22:26.358Z,100.00
2023-02-03T20:27:28.459Z,100.00
2023-02-03T20:32:30.905Z,100.00
2023-02-03T20:37:33.405Z,100.00
2023-02-03T20:42:35.589Z,100.00
2023-02-03T20:47:37.740Z,100.00
2023-02-03T20:52:39.878Z,100.00
2023-02-03T20:57:42.356Z,100.00
2023-02-03T21:03:04.142Z,100.00
2023-02-03T21:08:15.348Z,100.00
2023-02-03T21:13:26.620Z,100.00
2023-02-03T21:18:43.564Z,99.67
2023-02-03T21:23:47.570Z,100.00
2023-02-03T21:28:53.379Z,99.65
2023-02-03T21:33:57.902Z,100.00
2023-02-03T21:39:00.876Z,100.00
2023-02-03T21:44:40.760Z,99.78
2023-02-03T21:49:42.851Z,99.03
2023-02-03T21:54:44.976Z,98.55
2023-02-03T21:59:49.183Z,98.03
2023-02-03T22:04:51.301Z,97.73
2023-02-03T22:09:53.442Z,99.19
2023-02-03T22:14:55.540Z,99.33
2023-02-03T22:19:57.608Z,98.34
2023-02-03T22:24:59.994Z,98.24
2023-02-03T22:30:02.168Z,98.32
2023-02-03T22:35:04.403Z,97.11
2023-02-03T22:40:06.788Z,96.40
2023-02-03T22:45:09.639Z,98.70
2023-02-03T22:50:13.570Z,99.45
2023-02-03T22:55:15.697Z,99.25
2023-02-03T23:00:23.348Z,99.00
2023-02-03T23:05:25.499Z,99.30
2023-02-03T23:10:32.215Z,99.35
2023-02-03T23:15:34.581Z,99.82
2023-02-03T23:20:36.725Z,99.60
2023-02-03T23:25:38.975Z,99.68
2023-02-03T23:30:41.130Z,99.87
2023-02-03T23:35:46.082Z,99.42
2023-02-03T23:40:48.202Z,98.89
2023-02-03T23:45:50.273Z,98.85
2023-02-03T23:50:52.431Z,98.06
2023-02-03T23:55:54.564Z,97.02
